KOPF/OPF METAR and TAF weather

Enter ICAO airport designator
Station Type Date Time Source
KOPF METAR 2020/01/26 18:53 UTC NOAA

KOPF 261853Z 34005KT 10SM SKC 24/04 A3004


Station Type Date Time Source
KOPF Decoded METAR 2020/01/26 18:53 UTC NOAA

MIAMI OPA LOCKA AIRPORT, FL, United States (KOPF) 25-54N 80-17W 16M
Jan 26, 2020 - 01:53 PM EST / 2020.01.26 1853 UTC
Wind: from the NNW (340 degrees) at 6 MPH (5 KT):0
Visibility: 10 mile(s):0
Sky conditions: clear
Temperature: 75 F (24 C)
Dew Point: 39 F (4 C)
Relative Humidity: 27%
Pressure (altimeter): 30.04 in. Hg (1017 hPa)
ob: KOPF 261853Z 34005KT 10SM SKC 24/04 A3004
cycle: 19

Station Type Date Time Source
KOPF TAF 2020/01/26 18:22 UTC NOAA

TAF KOPF 261720Z 2618/2718 33008KT P6SM SKC
FM262000 03007KT P6SM FEW025
FM270000 VRB03KT P6SM FEW025 SCT250
FM271500 16008KT P6SM SCT025 SCT050

Example: see airport list